KPSK/PSK METAR and TAF weather

Enter ICAO airport designator
Station Type Date Time Source
KPSK METAR 2020/01/20 18:55 UTC NOAA

KPSK 201855Z AUTO 32012G16KT 10SM CLR M03/M11 A3031 RMK AO2 T10271108


Station Type Date Time Source
KPSK Decoded METAR 2020/01/20 18:55 UTC NOAA

Dublin / New River Valley, VA, United States (KPSK) 37-08N 080-41W
Jan 20, 2020 - 01:55 PM EST / 2020.01.20 1855 UTC
Wind: from the NW (320 degrees) at 14 MPH (12 KT) gusting to 18 MPH (16 KT):0
Visibility: 10 mile(s):0
Sky conditions: clear
Temperature: 27.1 F (-2.7 C)
Windchill: 15 F (-9 C):1
Dew Point: 12.6 F (-10.8 C)
Relative Humidity: 53%
Pressure (altimeter): 30.31 in. Hg (1026 hPa)
ob: KPSK 201855Z AUTO 32012G16KT 10SM CLR M03/M11 A3031 RMK AO2 T10271108
cycle: 19

Station Type Date Time Source
KPSK TAF UTC NOAA

Error!

Example: see airport list